createdAt,value
2018-08-22T00:01:21.212Z,101142.30
2018-08-22T00:03:26.088Z,101146.21
2018-08-22T00:05:31.107Z,101147.47
2018-08-22T00:07:35.971Z,101145.91
2018-08-22T00:09:40.937Z,101148.91
2018-08-22T00:11:45.964Z,101142.90
2018-08-22T00:13:50.820Z,101148.03
2018-08-22T00:15:55.765Z,101136.62
2018-08-22T00:18:00.719Z,101142.77
2018-08-22T00:20:05.485Z,101146.70
2018-08-22T00:22:10.361Z,101149.19
2018-08-22T00:24:15.153Z,101142.65
2018-08-22T00:26:20.151Z,101145.63
2018-08-22T00:28:25.111Z,101142.58
2018-08-22T00:30:30.117Z,101136.80
2018-08-22T00:32:34.913Z,101142.91
2018-08-22T00:34:39.697Z,101138.13
2018-08-22T00:36:44.696Z,101145.95
2018-08-22T00:38:49.604Z,101135.11
2018-08-22T00:40:54.549Z,101136.04
2018-08-22T00:42:59.685Z,101140.45
2018-08-22T00:45:04.963Z,101140.11
2018-08-22T00:47:10.114Z,101141.02
2018-08-22T00:49:15.253Z,101141.04
2018-08-22T00:51:20.372Z,101138.86
2018-08-22T00:53:25.317Z,101141.45
2018-08-22T00:55:30.104Z,101136.66
2018-08-22T00:57:35.084Z,101131.01
2018-08-22T00:59:40.421Z,101136.62
2018-08-22T01:01:45.405Z,101132.27
2018-08-22T01:03:50.518Z,101132.70
2018-08-22T01:05:55.641Z,101135.32
2018-08-22T01:08:00.543Z,101065.27
2018-08-22T01:10:05.993Z,101128.75
2018-08-22T01:12:11.016Z,101126.11
2018-08-22T01:14:16.110Z,101122.54
2018-08-22T01:16:21.193Z,101128.98
2018-08-22T01:18:26.193Z,101122.84
2018-08-22T01:20:31.202Z,101121.48
2018-08-22T01:22:36.345Z,101120.61
2018-08-22T01:24:41.160Z,101112.23
2018-08-22T01:26:46.552Z,101118.67
2018-08-22T01:28:51.512Z,101117.33
2018-08-22T01:30:56.829Z,101114.69
2018-08-22T01:33:01.905Z,101111.56
2018-08-22T01:35:07.095Z,101120.20
2018-08-22T01:37:12.164Z,101114.08
2018-08-22T01:39:17.034Z,101112.80
2018-08-22T01:41:22.288Z,101100.12
2018-08-22T01:43:33.618Z,101103.16
2018-08-22T01:45:38.751Z,101098.78
2018-08-22T01:47:43.766Z,101097.45
2018-08-22T01:49:49.131Z,101104.29
2018-08-22T01:51:54.133Z,101105.14
2018-08-22T01:53:59.104Z,101095.09
2018-08-22T01:56:04.527Z,101088.97
2018-08-22T01:58:10.273Z,101099.34
2018-08-22T02:00:15.415Z,101094.56
2018-08-22T02:02:20.257Z,101095.89
2018-08-22T02:04:25.346Z,101096.75
2018-08-22T02:06:30.201Z,101090.66
2018-08-22T02:08:35.295Z,101082.77
2018-08-22T02:10:40.703Z,101087.50
2018-08-22T02:12:45.511Z,101085.25
2018-08-22T02:14:50.374Z,101086.15
2018-08-22T02:16:55.245Z,101084.40
2018-08-22T02:19:00.259Z,101090.91
2018-08-22T02:21:05.573Z,101080.55
2018-08-22T02:23:11.247Z,101084.40
2018-08-22T02:25:16.191Z,101077.87
2018-08-22T02:27:20.989Z,101075.17
2018-08-22T02:29:25.952Z,101076.42
2018-08-22T02:31:31.398Z,101075.42
2018-08-22T02:33:36.396Z,101079.85
2018-08-22T02:35:41.528Z,101074.67
2018-08-22T02:37:46.469Z,101074.20
2018-08-22T02:39:51.583Z,101072.03
2018-08-22T02:41:56.540Z,101069.85
2018-08-22T02:44:01.647Z,101072.80
2018-08-22T02:46:07.242Z,101069.72
2018-08-22T02:48:12.177Z,101071.02
2018-08-22T02:50:17.912Z,101072.27
2018-08-22T02:52:23.299Z,101072.72
2018-08-22T02:54:28.306Z,101073.99
2018-08-22T02:56:33.234Z,101073.63
2018-08-22T02:58:38.336Z,101075.81
2018-08-22T03:00:43.325Z,101071.37
2018-08-22T03:02:48.204Z,101072.16
2018-08-22T03:04:53.369Z,101069.22
2018-08-22T03:06:58.233Z,101064.89
2018-08-22T03:09:03.393Z,101064.42
2018-08-22T03:11:08.227Z,101069.14
2018-08-22T03:13:13.218Z,101065.58
2018-08-22T03:15:18.054Z,101068.55
2018-08-22T03:17:22.946Z,101070.70
2018-08-22T03:19:28.400Z,101072.88
2018-08-22T03:21:34.880Z,101064.66
2018-08-22T03:23:39.687Z,101054.98
2018-08-22T03:25:44.838Z,101069.75
2018-08-22T03:27:51.923Z,101065.40
2018-08-22T03:29:56.946Z,101061.45
2018-08-22T03:32:03.912Z,101062.33
2018-08-22T03:34:09.745Z,101061.39
2018-08-22T03:36:14.877Z,101060.52
2018-08-22T03:38:19.849Z,101060.95
2018-08-22T03:40:24.909Z,101062.22
2018-08-22T03:42:29.880Z,101060.86
2018-08-22T03:44:34.851Z,101056.99
2018-08-22T03:46:39.877Z,101059.64
2018-08-22T03:48:56.792Z,101061.77
2018-08-22T03:51:02.052Z,101059.67
2018-08-22T03:53:06.989Z,101060.55
2018-08-22T03:55:11.937Z,101060.13
2018-08-22T03:57:16.737Z,101061.90
2018-08-22T03:59:21.502Z,101060.68
2018-08-22T04:01:26.693Z,101055.05
2018-08-22T04:03:31.664Z,101059.80
2018-08-22T04:05:36.809Z,101060.25
2018-08-22T04:07:41.706Z,101061.58
2018-08-22T04:09:46.769Z,101062.88
2018-08-22T04:11:51.842Z,101058.18
2018-08-22T04:13:56.665Z,101064.66
2018-08-22T04:16:14.405Z,101062.43
2018-08-22T04:18:19.287Z,101063.66
2018-08-22T04:20:24.382Z,101049.20
2018-08-22T04:22:30.942Z,101064.47
2018-08-22T04:24:37.722Z,101065.32
2018-08-22T04:26:43.755Z,101059.25
2018-08-22T04:28:49.790Z,101050.92
2018-08-22T04:30:55.315Z,101060.09
2018-08-22T04:33:00.619Z,101063.12
2018-08-22T04:35:05.900Z,101061.42
2018-08-22T04:37:10.872Z,101063.59
2018-08-22T04:39:16.069Z,101065.77
2018-08-22T04:41:21.366Z,101067.13
2018-08-22T04:43:26.436Z,101068.88
2018-08-22T04:45:31.301Z,101062.78
2018-08-22T04:47:36.470Z,101059.70
2018-08-22T04:49:42.167Z,101062.67
2018-08-22T04:51:47.773Z,101061.34
2018-08-22T04:53:53.053Z,101057.39
2018-08-22T04:55:58.724Z,101058.61
2018-08-22T04:58:05.073Z,101061.60
2018-08-22T05:00:13.261Z,101062.00
2018-08-22T05:02:18.830Z,101056.32
2018-08-22T05:04:26.130Z,101057.99
2018-08-22T05:06:39.076Z,101055.39
2018-08-22T05:08:54.103Z,101059.27
2018-08-22T05:10:58.987Z,101054.83
2018-08-22T05:13:04.081Z,101052.23
2018-08-22T05:15:09.459Z,101055.23
2018-08-22T05:17:20.033Z,101057.87
2018-08-22T05:19:24.827Z,101057.42
2018-08-22T05:21:29.637Z,101063.13
2018-08-22T05:23:34.749Z,101066.19
2018-08-22T05:25:42.486Z,101064.94
2018-08-22T05:27:47.556Z,101068.44
2018-08-22T05:29:52.844Z,101063.24
2018-08-22T05:31:59.048Z,101064.17
2018-08-22T05:34:04.228Z,101065.55
2018-08-22T05:36:09.294Z,101063.86
2018-08-22T05:38:14.486Z,101059.96
2018-08-22T05:40:19.480Z,101066.52
2018-08-22T05:42:24.631Z,101068.27
2018-08-22T05:44:34.789Z,101054.84
2018-08-22T05:46:42.382Z,101048.30
2018-08-22T05:49:04.736Z,101058.03
2018-08-22T05:51:10.348Z,101064.18
2018-08-22T05:53:15.532Z,101069.91
2018-08-22T05:55:20.595Z,101070.97
2018-08-22T05:57:25.604Z,101069.72
2018-08-22T05:59:30.730Z,101069.74
2018-08-22T06:01:35.616Z,101065.89
2018-08-22T06:03:40.603Z,101075.08
2018-08-22T06:05:45.980Z,101075.58
2018-08-22T06:07:51.311Z,101067.89
2018-08-22T06:09:56.320Z,101068.39
2018-08-22T06:12:01.145Z,101074.96
2018-08-22T06:14:05.967Z,101074.14
2018-08-22T06:16:11.115Z,101068.53
2018-08-22T06:18:16.015Z,101071.63
2018-08-22T06:20:21.051Z,101070.41
2018-08-22T06:22:25.857Z,101066.52
2018-08-22T06:24:30.817Z,101071.34
2018-08-22T06:26:36.213Z,101068.73
2018-08-22T06:28:41.285Z,101076.28
2018-08-22T06:30:46.924Z,101074.62
2018-08-22T06:32:52.036Z,101080.29
2018-08-22T06:34:57.207Z,101069.92
2018-08-22T06:37:02.195Z,101076.49
2018-08-22T06:39:11.034Z,101074.78
2018-08-22T06:41:16.958Z,101072.66
2018-08-22T06:43:21.991Z,101073.60
2018-08-22T06:45:27.146Z,101076.80
2018-08-22T06:47:32.244Z,101075.16
2018-08-22T06:49:37.386Z,101076.05
2018-08-22T06:51:42.789Z,101081.68
2018-08-22T06:53:49.553Z,101076.92
2018-08-22T06:55:54.769Z,101074.44
2018-08-22T06:58:00.841Z,101075.77
2018-08-22T07:00:07.925Z,101073.19
2018-08-22T07:02:13.257Z,101075.56
2018-08-22T07:04:18.207Z,101062.84
2018-08-22T07:06:23.136Z,101075.61
2018-08-22T07:08:29.908Z,101071.32
2018-08-22T07:10:36.119Z,101074.80
2018-08-22T07:12:42.235Z,101079.63
2018-08-22T07:14:48.149Z,101071.37
2018-08-22T07:16:53.302Z,101051.45
2018-08-22T07:18:58.734Z,101069.59
2018-08-22T07:21:04.319Z,101077.27
2018-08-22T07:23:09.607Z,101078.13
2018-08-22T07:25:15.395Z,101080.30
2018-08-22T07:27:22.520Z,101083.94
2018-08-22T07:29:27.933Z,101073.73
2018-08-22T07:31:33.447Z,101080.74
2018-08-22T07:33:38.678Z,101064.94
2018-08-22T07:35:45.021Z,101079.77
2018-08-22T07:37:50.301Z,101077.19
2018-08-22T07:39:55.257Z,101078.94
2018-08-22T07:42:00.395Z,101078.48
2018-08-22T07:44:05.954Z,101060.16
2018-08-22T07:46:11.076Z,101080.73
2018-08-22T07:48:16.216Z,101076.42
2018-08-22T07:50:21.396Z,101078.19
2018-08-22T07:52:26.794Z,101079.58
2018-08-22T07:54:50.916Z,101077.45
2018-08-22T07:56:56.000Z,101075.83
2018-08-22T07:59:20.592Z,101075.89
2018-08-22T08:01:25.370Z,101072.84
2018-08-22T08:03:30.576Z,101074.63
2018-08-22T08:05:35.479Z,101070.34
2018-08-22T08:07:40.364Z,101071.73
2018-08-22T08:09:45.188Z,101074.34
2018-08-22T08:11:50.012Z,101074.00
2018-08-22T08:13:54.778Z,101072.25
2018-08-22T08:15:59.926Z,101081.38
2018-08-22T08:18:04.909Z,101080.95
2018-08-22T08:20:09.964Z,101078.34
2018-08-22T08:22:14.805Z,101079.67
2018-08-22T08:24:19.751Z,101083.23
2018-08-22T08:26:25.003Z,101075.39
2018-08-22T08:28:30.333Z,101076.28
2018-08-22T08:30:35.220Z,101080.27
2018-08-22T08:32:40.219Z,101082.45
2018-08-22T08:34:45.470Z,101078.09
2018-08-22T08:36:50.690Z,101076.38
2018-08-22T08:38:55.783Z,101075.94
2018-08-22T08:41:00.803Z,101081.17
2018-08-22T08:43:05.739Z,101068.53
2018-08-22T08:45:11.793Z,101075.95
2018-08-22T08:47:16.808Z,101067.67
2018-08-22T08:49:21.905Z,101066.36
2018-08-22T08:51:27.474Z,101064.63
2018-08-22T08:53:32.821Z,101067.74
2018-08-22T08:55:38.208Z,101064.69
2018-08-22T08:57:43.183Z,101070.36
2018-08-22T08:59:48.339Z,101072.53
2018-08-22T09:01:53.307Z,101072.97
2018-08-22T09:03:59.177Z,101068.16
2018-08-22T09:06:04.264Z,101070.34
2018-08-22T09:08:09.231Z,101071.66
2018-08-22T09:10:14.196Z,101065.11
2018-08-22T09:12:19.473Z,101070.31
2018-08-22T09:14:24.427Z,101071.63
2018-08-22T09:16:29.387Z,101065.52
2018-08-22T09:18:34.516Z,101066.82
2018-08-22T09:20:40.166Z,101063.76
2018-08-22T09:22:45.365Z,101061.56
2018-08-22T09:24:50.527Z,101059.83
2018-08-22T09:26:55.517Z,101062.00
2018-08-22T09:29:00.571Z,101052.82
2018-08-22T09:31:05.558Z,101053.28
2018-08-22T09:33:10.623Z,101049.79
2018-08-22T09:35:16.055Z,101048.05
2018-08-22T09:37:21.250Z,101048.91
2018-08-22T09:39:41.104Z,101046.30
2018-08-22T09:41:46.299Z,101043.60
2018-08-22T09:43:51.274Z,101047.08
2018-08-22T09:45:56.081Z,101045.31
2018-08-22T09:48:01.008Z,101039.63
2018-08-22T09:50:06.287Z,101044.79
2018-08-22T09:52:11.308Z,101041.69
2018-08-22T09:54:16.361Z,101044.72
2018-08-22T09:56:21.589Z,101039.50
2018-08-22T09:58:26.444Z,101038.56
2018-08-22T10:00:36.218Z,101042.06
2018-08-22T10:02:41.245Z,101042.55
2018-08-22T10:04:46.414Z,101043.17
2018-08-22T10:06:51.883Z,101035.33
2018-08-22T10:08:58.467Z,101040.79
2018-08-22T10:11:03.581Z,101038.59
2018-08-22T10:13:08.554Z,101038.14
2018-08-22T10:15:13.726Z,101044.67
2018-08-22T10:17:19.142Z,101031.95
2018-08-22T10:19:23.992Z,101025.64
2018-08-22T10:21:29.062Z,101027.14
2018-08-22T10:23:34.138Z,101033.95
2018-08-22T10:25:39.314Z,101026.89
2018-08-22T10:27:44.510Z,101027.84
2018-08-22T10:29:49.771Z,101022.78
2018-08-22T10:31:54.642Z,101023.08
2018-08-22T10:33:59.766Z,101024.23
2018-08-22T10:36:05.087Z,101019.14
2018-08-22T10:38:09.878Z,101014.25
2018-08-22T10:40:14.848Z,101013.52
2018-08-22T10:42:20.110Z,101012.64
2018-08-22T10:44:25.216Z,101020.66
2018-08-22T10:46:30.340Z,101020.64
2018-08-22T10:48:40.155Z,101013.94
2018-08-22T10:50:45.253Z,101008.84
2018-08-22T10:52:50.132Z,101011.31
2018-08-22T10:54:55.204Z,101010.06
2018-08-22T10:57:00.346Z,101012.92
2018-08-22T10:59:05.284Z,101010.79
2018-08-22T11:01:10.221Z,101009.08
2018-08-22T11:03:15.427Z,101009.03
2018-08-22T11:05:20.641Z,101009.86
2018-08-22T11:07:25.879Z,101003.65
2018-08-22T11:09:31.447Z,100999.19
2018-08-22T11:11:36.600Z,101002.56
2018-08-22T11:13:42.006Z,101001.67
2018-08-22T11:15:47.205Z,100994.03
2018-08-22T11:17:52.436Z,100992.09
2018-08-22T11:19:57.536Z,100991.55
2018-08-22T11:22:19.037Z,100991.27
2018-08-22T11:24:40.353Z,100990.91
2018-08-22T11:27:01.924Z,100998.70
2018-08-22T11:29:23.356Z,100998.66
2018-08-22T11:31:44.867Z,100999.14
2018-08-22T11:34:06.363Z,100999.50
2018-08-22T11:36:09.399Z,100999.73
2018-08-22T11:38:14.597Z,100998.20
2018-08-22T11:40:19.814Z,101000.20
2018-08-22T11:42:24.737Z,101000.41
2018-08-22T11:44:30.171Z,101002.19
2018-08-22T11:46:35.209Z,100996.45
2018-08-22T11:48:40.254Z,100995.66
2018-08-22T11:50:45.604Z,100996.75
2018-08-22T11:52:50.686Z,100989.08
2018-08-22T11:54:56.513Z,100987.06
2018-08-22T11:57:02.117Z,100989.88
2018-08-22T11:59:07.051Z,100980.39
2018-08-22T12:01:12.215Z,100981.86
2018-08-22T12:03:17.344Z,100977.56
2018-08-22T12:05:22.319Z,100974.98
2018-08-22T12:07:28.500Z,100975.88
2018-08-22T12:09:33.495Z,100976.56
2018-08-22T12:11:38.520Z,100977.45
2018-08-22T12:13:43.598Z,100978.66
2018-08-22T12:16:05.157Z,100975.75
2018-08-22T12:18:10.099Z,100981.20
2018-08-22T12:20:14.951Z,100977.80
2018-08-22T12:22:20.071Z,100979.49
2018-08-22T12:24:25.088Z,100973.05
2018-08-22T12:26:30.042Z,100973.41
2018-08-22T12:28:36.421Z,100964.63
2018-08-22T12:30:41.785Z,100962.53
2018-08-22T12:32:46.908Z,100969.09
2018-08-22T12:34:52.211Z,100968.50
2018-08-22T12:36:57.343Z,100971.98
2018-08-22T12:39:02.543Z,100965.95
2018-08-22T12:41:08.621Z,100956.80
2018-08-22T12:43:13.659Z,100956.09
2018-08-22T12:45:18.794Z,100961.02
2018-08-22T12:47:23.727Z,100963.77
2018-08-22T12:49:28.729Z,100968.38
2018-08-22T12:51:34.027Z,100956.66
2018-08-22T12:53:39.330Z,100956.28
2018-08-22T12:55:44.380Z,100954.03
2018-08-22T12:57:49.346Z,100956.95
2018-08-22T12:59:54.372Z,100952.50
2018-08-22T13:01:59.484Z,100956.73
2018-08-22T13:04:04.655Z,100950.59
2018-08-22T13:06:09.576Z,100947.30
2018-08-22T13:08:14.783Z,100946.88
2018-08-22T13:10:20.431Z,100951.28
2018-08-22T13:12:25.399Z,100951.73
2018-08-22T13:14:30.462Z,100956.86
2018-08-22T13:16:35.465Z,100953.37
2018-08-22T13:18:40.802Z,100951.07
2018-08-22T13:20:45.920Z,100945.55
2018-08-22T13:22:50.983Z,100946.11
2018-08-22T13:24:56.167Z,100948.88
2018-08-22T13:27:01.242Z,100944.09
2018-08-22T13:29:06.570Z,100947.83
2018-08-22T13:31:11.964Z,100949.50
2018-08-22T13:33:16.816Z,100941.05
2018-08-22T13:35:22.961Z,100936.87
2018-08-22T13:37:29.003Z,100895.23
2018-08-22T13:39:34.193Z,100932.06
2018-08-22T13:41:40.461Z,100904.63
2018-08-22T13:43:45.595Z,100932.69
2018-08-22T13:45:50.689Z,100932.52
2018-08-22T13:47:55.952Z,100927.64
2018-08-22T13:50:00.998Z,100923.84
2018-08-22T13:52:06.103Z,100924.08
2018-08-22T13:54:11.480Z,100927.94
2018-08-22T13:56:17.244Z,100917.10
2018-08-22T14:00:37.824Z,100923.22
2018-08-22T14:02:42.738Z,100917.98
2018-08-22T14:04:47.532Z,100923.18
2018-08-22T14:06:52.668Z,100941.16
2018-08-22T14:08:57.753Z,100913.33
2018-08-22T14:11:02.673Z,100922.94
2018-08-22T14:13:08.737Z,100910.73
2018-08-22T14:15:13.606Z,100910.17
2018-08-22T14:17:18.553Z,100913.06
2018-08-22T14:19:23.655Z,100909.85
2018-08-22T14:21:28.729Z,100920.66
2018-08-22T14:23:33.590Z,100921.01
2018-08-22T14:25:38.610Z,100921.90
2018-08-22T14:27:43.776Z,100915.13
2018-08-22T14:29:48.939Z,100911.53
2018-08-22T14:31:53.784Z,100918.28
2018-08-22T14:33:58.685Z,100921.34
2018-08-22T14:36:03.446Z,100914.13
2018-08-22T14:38:08.455Z,100918.11
2018-08-22T14:40:13.542Z,100908.83
2018-08-22T14:42:18.340Z,100902.09
2018-08-22T14:44:23.107Z,100914.20
2018-08-22T14:46:28.263Z,100917.50
2018-08-22T14:48:33.116Z,100919.37
2018-08-22T14:50:38.312Z,100911.53
2018-08-22T14:52:43.857Z,100916.27
2018-08-22T14:54:48.641Z,100916.94
2018-08-22T14:56:53.604Z,100913.77
2018-08-22T14:58:58.658Z,100919.73
2018-08-22T15:01:03.695Z,100868.66
2018-08-22T15:03:08.953Z,100914.52
2018-08-22T15:05:14.919Z,100914.23
2018-08-22T15:07:19.821Z,100920.69
2018-08-22T15:09:25.017Z,100916.42
2018-08-22T15:11:30.434Z,100911.46
2018-08-22T15:13:36.859Z,100906.84
2018-08-22T15:15:42.908Z,100915.55
2018-08-22T15:17:48.001Z,100906.99
2018-08-22T15:19:52.839Z,100908.47
2018-08-22T15:21:58.002Z,100903.03
2018-08-22T15:24:03.255Z,100902.70
2018-08-22T15:26:08.496Z,100905.82
2018-08-22T15:28:13.388Z,100912.64
2018-08-22T15:30:18.617Z,100904.80
2018-08-22T15:32:24.894Z,100897.92
2018-08-22T15:34:47.031Z,100889.68
2018-08-22T15:36:52.323Z,100881.70
2018-08-22T15:38:57.640Z,100880.00
2018-08-22T15:41:02.878Z,100885.31
2018-08-22T15:43:08.365Z,100880.41
2018-08-22T15:45:13.550Z,100892.81
2018-08-22T15:47:19.175Z,100885.59
2018-08-22T15:49:24.321Z,100888.90
2018-08-22T15:51:29.612Z,100881.02
2018-08-22T15:53:34.902Z,100880.20
2018-08-22T15:55:40.217Z,100883.75
2018-08-22T15:58:06.329Z,100890.83
2018-08-22T16:00:11.387Z,100878.09
2018-08-22T16:02:16.420Z,100881.33
2018-08-22T16:04:21.343Z,100880.28
2018-08-22T16:06:26.353Z,100884.67
2018-08-22T16:08:31.589Z,100880.23
2018-08-22T16:10:39.307Z,100878.89
2018-08-22T16:12:44.506Z,100878.66
2018-08-22T16:14:49.647Z,100865.14
2018-08-22T16:16:54.935Z,100872.72
2018-08-22T16:19:00.068Z,100866.42
2018-08-22T16:21:07.702Z,100874.41
2018-08-22T16:23:12.692Z,100869.56
2018-08-22T16:25:17.759Z,100862.38
2018-08-22T16:27:22.851Z,100861.19
2018-08-22T16:29:28.034Z,100851.91
2018-08-22T16:31:51.005Z,100859.49
2018-08-22T16:33:56.144Z,100856.03
2018-08-22T16:36:01.040Z,100864.42
2018-08-22T16:38:10.354Z,100844.27
2018-08-22T16:40:15.758Z,100858.46
2018-08-22T16:42:24.942Z,100858.09
2018-08-22T16:44:30.079Z,100858.73
2018-08-22T16:46:35.133Z,100856.46
2018-08-22T16:48:41.868Z,100859.33
2018-08-22T16:50:47.208Z,100858.08
2018-08-22T16:52:52.233Z,100858.11
2018-08-22T16:55:15.123Z,100857.37
2018-08-22T16:57:20.748Z,100852.31
2018-08-22T16:59:26.043Z,100852.58
2018-08-22T17:01:31.766Z,100856.52
2018-08-22T17:03:36.945Z,100853.11
2018-08-22T17:05:42.202Z,100842.79
2018-08-22T17:07:47.294Z,100839.81
2018-08-22T17:09:52.430Z,100848.92
2018-08-22T17:11:57.497Z,100842.96
2018-08-22T17:14:02.490Z,100847.58
2018-08-22T17:16:07.638Z,100841.84
2018-08-22T17:18:13.043Z,100848.00
2018-08-22T17:20:18.148Z,100851.22
2018-08-22T17:22:23.015Z,100849.64
2018-08-22T17:24:28.223Z,100847.33
2018-08-22T17:26:33.139Z,100837.89
2018-08-22T17:28:38.875Z,100849.73
2018-08-22T17:30:44.322Z,100839.33
2018-08-22T17:32:49.249Z,100847.75
2018-08-22T17:34:57.953Z,100847.59
2018-08-22T17:37:08.589Z,100836.91
2018-08-22T17:39:14.154Z,100833.98
2018-08-22T17:41:21.805Z,100835.91
2018-08-22T17:43:26.942Z,100832.47
2018-08-22T17:45:39.338Z,100834.56
2018-08-22T17:47:45.844Z,100840.98
2018-08-22T17:50:04.859Z,100843.66
2018-08-22T17:52:11.049Z,100845.38
2018-08-22T17:54:16.548Z,100849.25
2018-08-22T17:56:24.375Z,100846.34
2018-08-22T17:58:29.585Z,100841.89
2018-08-22T18:00:37.119Z,100847.42
2018-08-22T18:02:41.927Z,100841.11
2018-08-22T18:04:54.077Z,100846.48
2018-08-22T18:06:59.945Z,100849.82
2018-08-22T18:09:05.399Z,100854.13
2018-08-22T18:11:13.046Z,100853.28
2018-08-22T18:13:18.411Z,100847.89
2018-08-22T18:15:23.712Z,100845.94
2018-08-22T18:17:28.789Z,100846.36
2018-08-22T18:19:34.493Z,100851.70
2018-08-22T18:21:44.604Z,100843.91
2018-08-22T18:23:55.605Z,100857.30
2018-08-22T18:26:01.973Z,100857.63
2018-08-22T18:28:07.817Z,100857.98
2018-08-22T18:30:13.338Z,100864.46
2018-08-22T18:32:19.028Z,100858.41
2018-08-22T18:34:24.454Z,100859.88
2018-08-22T18:36:30.946Z,100864.20
2018-08-22T18:38:36.707Z,100865.80
2018-08-22T18:40:43.475Z,100870.34
2018-08-22T18:42:57.581Z,100871.76
2018-08-22T18:45:04.958Z,100876.59
2018-08-22T18:47:10.705Z,100878.37
2018-08-22T18:49:19.691Z,100873.95
2018-08-22T18:51:25.253Z,100880.50
2018-08-22T18:53:31.265Z,100877.16
2018-08-22T18:55:39.689Z,100885.03
2018-08-22T18:57:48.942Z,100883.77
2018-08-22T18:59:54.737Z,100887.36
2018-08-22T19:02:03.218Z,100888.59
2018-08-22T19:04:08.488Z,100891.64
2018-08-22T19:06:15.303Z,100890.02
2018-08-22T19:08:24.806Z,100894.34
2018-08-22T19:10:53.441Z,100899.63
2018-08-22T19:13:24.065Z,100895.85
2018-08-22T19:15:49.628Z,100905.84
2018-08-22T19:18:17.045Z,100906.26
2018-08-22T19:20:40.155Z,100904.95
2018-08-22T19:22:55.347Z,100898.09
2018-08-22T19:25:15.846Z,100901.66
2018-08-22T19:27:29.906Z,100901.55
2018-08-22T19:29:48.009Z,100900.23
2018-08-22T19:32:27.435Z,100898.53
2018-08-22T19:35:18.541Z,100898.10
2018-08-22T19:37:49.129Z,100886.00
2018-08-22T19:40:21.282Z,100899.49
2018-08-22T19:42:42.024Z,100905.67
2018-08-22T19:45:27.196Z,100900.90
2018-08-22T19:47:57.192Z,100908.80
2018-08-22T19:50:28.978Z,100903.58
2018-08-22T19:52:55.467Z,100908.45
2018-08-22T19:55:29.819Z,100911.08
2018-08-22T19:58:14.093Z,100906.27
2018-08-22T20:03:36.900Z,100909.80
2018-08-22T20:06:13.936Z,100907.23
2018-08-22T20:08:39.940Z,100898.91
2018-08-22T20:11:01.639Z,100904.98
2018-08-22T20:14:41.695Z,100908.95
2018-08-22T20:17:20.668Z,100907.64
2018-08-22T20:19:29.226Z,100899.39
2018-08-22T20:21:37.157Z,100908.95
2018-08-22T20:23:42.346Z,100911.13
2018-08-22T20:25:49.032Z,100914.20
2018-08-22T20:27:54.762Z,100911.17
2018-08-22T20:33:28.878Z,100916.42
2018-08-22T20:35:47.522Z,100922.95
2018-08-22T20:38:28.830Z,100922.08
2018-08-22T20:41:07.484Z,100932.54
2018-08-22T20:43:42.842Z,100925.57
2018-08-22T20:46:08.821Z,100927.23
2018-08-22T20:48:16.427Z,100927.72
2018-08-22T20:50:37.761Z,100922.44
2018-08-22T20:53:05.175Z,100928.09
2018-08-22T20:55:33.324Z,100922.05
2018-08-22T20:57:38.808Z,100922.45
2018-08-22T20:59:43.903Z,100926.41
2018-08-22T21:02:19.656Z,100921.99
2018-08-22T21:04:55.605Z,100922.44
2018-08-22T21:07:51.388Z,100915.02
2018-08-22T21:10:32.840Z,100918.00
2018-08-22T21:13:07.967Z,100913.16
2018-08-22T21:15:50.423Z,100914.47
2018-08-22T21:18:07.516Z,100915.79
2018-08-22T21:20:30.894Z,100915.82
2018-08-22T21:22:36.449Z,100914.91
2018-08-22T21:24:57.612Z,100916.17
2018-08-22T21:27:12.881Z,100922.27
2018-08-22T21:29:18.086Z,100923.12
2018-08-22T21:31:23.178Z,100923.55
2018-08-22T21:33:29.180Z,100930.12
2018-08-22T21:35:34.481Z,100925.69
2018-08-22T21:37:39.638Z,100931.44
2018-08-22T21:39:45.857Z,100926.22
2018-08-22T21:41:54.925Z,100931.39
2018-08-22T21:44:00.059Z,100932.64
2018-08-22T21:46:06.525Z,100899.06
2018-08-22T21:48:22.025Z,100888.08
2018-08-22T21:50:27.272Z,100936.08
2018-08-22T21:52:55.071Z,100884.56
2018-08-22T21:55:00.807Z,100909.83
2018-08-22T21:57:06.638Z,100927.80
2018-08-22T21:59:12.483Z,100882.73
2018-08-22T22:01:18.310Z,100929.85
2018-08-22T22:03:28.819Z,100883.55
2018-08-22T22:05:50.579Z,100923.80
2018-08-22T22:10:11.652Z,100928.44
2018-08-22T22:12:21.663Z,100925.03
2018-08-22T22:14:27.661Z,100922.91
2018-08-22T22:16:33.267Z,100908.98
2018-08-22T22:18:38.661Z,100929.35
2018-08-22T22:20:51.612Z,100923.62
2018-08-22T22:22:57.948Z,100924.47
2018-08-22T22:25:03.283Z,100924.09
2018-08-22T22:27:10.014Z,100922.70
2018-08-22T22:29:15.052Z,100923.65
2018-08-22T22:31:19.933Z,100923.95
2018-08-22T22:33:24.923Z,100923.94
2018-08-22T22:35:34.767Z,100922.05
2018-08-22T22:37:39.981Z,100921.05
2018-08-22T22:39:46.433Z,100932.34
2018-08-22T22:41:51.646Z,100930.19
2018-08-22T22:43:56.885Z,100937.54
2018-08-22T22:46:01.830Z,100937.53
2018-08-22T22:48:07.078Z,100932.66
2018-08-22T22:50:12.173Z,100934.03
2018-08-22T22:52:27.148Z,100933.07
2018-08-22T22:54:36.624Z,100931.71
2018-08-22T22:56:41.931Z,100920.86
2018-08-22T22:58:48.229Z,100929.62
2018-08-22T23:00:53.817Z,100936.55
2018-08-22T23:03:04.497Z,100920.09
2018-08-22T23:05:10.167Z,100909.24
2018-08-22T23:07:25.166Z,100896.91
2018-08-22T23:09:34.832Z,100929.17
2018-08-22T23:11:39.953Z,100929.59
2018-08-22T23:13:45.223Z,100929.05
2018-08-22T23:15:50.314Z,100935.48
2018-08-22T23:17:58.203Z,100930.91
2018-08-22T23:20:19.356Z,100931.22
2018-08-22T23:22:24.374Z,100929.02
2018-08-22T23:24:30.165Z,100935.14
2018-08-22T23:26:35.531Z,100931.34
2018-08-22T23:28:40.639Z,100933.14
2018-08-22T23:30:48.487Z,100929.52
2018-08-22T23:33:02.184Z,100932.13
2018-08-22T23:35:24.681Z,100925.21
2018-08-22T23:37:29.838Z,100926.43
2018-08-22T23:39:34.987Z,100922.46
2018-08-22T23:41:39.929Z,100923.05
2018-08-22T23:43:50.164Z,100916.88
2018-08-22T23:45:57.230Z,100912.30
2018-08-22T23:48:02.142Z,100914.92
2018-08-22T23:50:07.272Z,100916.66
2018-08-22T23:52:12.219Z,100919.05
2018-08-22T23:54:17.255Z,100909.47
2018-08-22T23:56:24.038Z,100915.98
2018-08-22T23:58:28.966Z,100918.47
